Hauptseite
METAR-TAF:

METAR-TAF

Flughäfen :

Flughafen Franjo Tuđman Zagreb

Zagreb, Kroatien

Breite: 45-44N, Länge: 016-04E, Höhe: 106 m

Beobachtung

Neuester Wetterbericht von vor 17 Minuten, um 21:00 UTC
Windstille
Temperatur 13°C
Luftfeuchtigkeit 82%
Luftdruck 1020 hPa
Sichtweite 10 km oder mehr
keine Wolken unter 1500 m und keine Kumulonimbus oder Gewitterwolken

METAR: LDZA 232100Z 00000KT CAVOK 13/10 Q1020 NOSIG

Zeit: 23:17 (21:17 UTC)

Prognose

Neuester Wetterbericht von vor 3 Stunden und 52 Minuten, um 17:25 UTC
Gültige Prognose vom 23 um 18 UTC bis 24 um 18 UTC
Wind 5 kt aus Nordost
Sichtweite 10 km oder mehr
Aufgelockert bewölkt in der Höhe von 3000 ft

TAF: LDZA 231725Z 2318/2418 05005KT 9999 SCT030 TX21/2414Z TN10/2403Z

Wetterbeobachtungen und Prognosen von mehr als 4000 Flughäfen (METAR und TAF Bericht).

Die verfügbaren Stationen werden durch gelbe und rote Markierungen auf der Karte dargestellt.

Führen Sie die Maus auf sie, um den Namen der Station zu sehen.

Darauf klicken, um die Beobachtung von Wetterbeobachtungen und Prognosen zu sehen.

Um die Karte zu ändern : klicken Sie auf den grünen Tasten mit einem schwarzen Kreuz Zum Vergrößern, auf den grünen Button mit einem Gedankenstrich zu verkleinern, oder auf die grünen Pfeile für benachbarte Karten.


METAR-TAF: